sensor_id;sensor_type;location;lat;lon;timestamp;temperature;humidity
54461;DHT22;69977;49.414;11.010;2024-02-23T00:02:05;9.90;99.90
54461;DHT22;69977;49.414;11.010;2024-02-23T00:04:31;9.80;99.90
54461;DHT22;69977;49.414;11.010;2024-02-23T00:06:57;9.70;99.90
54461;DHT22;69977;49.414;11.010;2024-02-23T00:09:23;9.70;99.90
54461;DHT22;69977;49.414;11.010;2024-02-23T00:11:50;9.60;99.90
54461;DHT22;69977;49.414;11.010;2024-02-23T00:14:16;9.60;99.90
54461;DHT22;69977;49.414;11.010;2024-02-23T00:16:46;9.60;99.90
54461;DHT22;69977;49.414;11.010;2024-02-23T00:19:12;9.60;99.90
54461;DHT22;69977;49.414;11.010;2024-02-23T00:21:39;9.50;99.90
54461;DHT22;69977;49.414;11.010;2024-02-23T00:24:08;9.50;99.90
54461;DHT22;69977;49.414;11.010;2024-02-23T00:26:34;9.50;99.90
54461;DHT22;69977;49.414;11.010;2024-02-23T00:29:00;9.40;99.90
54461;DHT22;69977;49.414;11.010;2024-02-23T00:31:25;9.40;99.90
54461;DHT22;69977;49.414;11.010;2024-02-23T00:33:51;9.40;99.90
54461;DHT22;69977;49.414;11.010;2024-02-23T00:36:17;9.30;99.90
54461;DHT22;69977;49.414;11.010;2024-02-23T00:38:43;9.30;99.90
54461;DHT22;69977;49.414;11.010;2024-02-23T00:41:09;9.20;99.90
54461;DHT22;69977;49.414;11.010;2024-02-23T00:43:39;9.20;99.90
54461;DHT22;69977;49.414;11.010;2024-02-23T00:46:05;9.10;99.90
54461;DHT22;69977;49.414;11.010;2024-02-23T00:48:31;9.10;99.90
54461;DHT22;69977;49.414;11.010;2024-02-23T00:50:57;9.00;99.90
54461;DHT22;69977;49.414;11.010;2024-02-23T00:53:23;9.00;99.90
54461;DHT22;69977;49.414;11.010;2024-02-23T00:55:49;8.90;99.90
54461;DHT22;69977;49.414;11.010;2024-02-23T00:58:15;8.80;99.90
54461;DHT22;69977;49.414;11.010;2024-02-23T01:00:41;8.80;99.90
54461;DHT22;69977;49.414;11.010;2024-02-23T01:03:07;8.70;99.90
54461;DHT22;69977;49.414;11.010;2024-02-23T01:05:33;8.60;99.90
54461;DHT22;69977;49.414;11.010;2024-02-23T01:07:59;8.50;99.90
54461;DHT22;69977;49.414;11.010;2024-02-23T01:10:25;8.40;99.90
54461;DHT22;69977;49.414;11.010;2024-02-23T01:12:51;8.40;99.90
54461;DHT22;69977;49.414;11.010;2024-02-23T01:15:17;8.30;99.90
54461;DHT22;69977;49.414;11.010;2024-02-23T01:17:42;8.30;99.90
54461;DHT22;69977;49.414;11.010;2024-02-23T01:20:09;8.20;99.90
54461;DHT22;69977;49.414;11.010;2024-02-23T01:22:35;8.20;99.90
54461;DHT22;69977;49.414;11.010;2024-02-23T01:25:01;8.20;99.90
54461;DHT22;69977;49.414;11.010;2024-02-23T01:27:26;8.20;99.90
54461;DHT22;69977;49.414;11.010;2024-02-23T01:29:52;8.10;99.90
54461;DHT22;69977;49.414;11.010;2024-02-23T01:32:18;8.10;99.90
54461;DHT22;69977;49.414;11.010;2024-02-23T01:34:44;8.00;99.90
54461;DHT22;69977;49.414;11.010;2024-02-23T01:37:10;8.00;99.90
54461;DHT22;69977;49.414;11.010;2024-02-23T01:39:37;8.00;99.90
54461;DHT22;69977;49.414;11.010;2024-02-23T01:42:03;8.00;99.90
54461;DHT22;69977;49.414;11.010;2024-02-23T01:44:29;7.90;99.90
54461;DHT22;69977;49.414;11.010;2024-02-23T01:46:55;7.80;99.90
54461;DHT22;69977;49.414;11.010;2024-02-23T01:49:21;7.80;99.90
54461;DHT22;69977;49.414;11.010;2024-02-23T01:51:48;7.70;99.90
54461;DHT22;69977;49.414;11.010;2024-02-23T01:54:15;7.70;99.90
54461;DHT22;69977;49.414;11.010;2024-02-23T01:56:42;7.70;99.90
54461;DHT22;69977;49.414;11.010;2024-02-23T01:59:10;7.70;99.90
54461;DHT22;69977;49.414;11.010;2024-02-23T02:01:37;7.60;99.90
54461;DHT22;69977;49.414;11.010;2024-02-23T02:04:04;7.60;99.90
54461;DHT22;69977;49.414;11.010;2024-02-23T02:06:29;7.60;99.90
54461;DHT22;69977;49.414;11.010;2024-02-23T02:08:55;7.60;99.90
54461;DHT22;69977;49.414;11.010;2024-02-23T02:11:21;7.50;99.90
54461;DHT22;69977;49.414;11.010;2024-02-23T02:13:47;7.50;99.90
54461;DHT22;69977;49.414;11.010;2024-02-23T02:16:13;7.50;99.90
54461;DHT22;69977;49.414;11.010;2024-02-23T02:18:39;7.50;99.90
54461;DHT22;69977;49.414;11.010;2024-02-23T02:21:05;7.50;99.90
54461;DHT22;69977;49.414;11.010;2024-02-23T02:23:31;7.50;99.90
54461;DHT22;69977;49.414;11.010;2024-02-23T02:25:58;7.50;99.90
54461;DHT22;69977;49.414;11.010;2024-02-23T02:28:25;7.50;99.90
54461;DHT22;69977;49.414;11.010;2024-02-23T02:30:52;7.50;99.90
54461;DHT22;69977;49.414;11.010;2024-02-23T02:33:21;7.50;99.90
54461;DHT22;69977;49.414;11.010;2024-02-23T02:35:48;7.50;99.90
54461;DHT22;69977;49.414;11.010;2024-02-23T02:38:15;7.40;99.90
54461;DHT22;69977;49.414;11.010;2024-02-23T02:40:42;7.40;99.90
54461;DHT22;69977;49.414;11.010;2024-02-23T02:43:08;7.40;99.90
54461;DHT22;69977;49.414;11.010;2024-02-23T02:45:34;7.30;99.90
54461;DHT22;69977;49.414;11.010;2024-02-23T02:48:00;7.30;99.90
54461;DHT22;69977;49.414;11.010;2024-02-23T02:50:27;7.30;99.90
54461;DHT22;69977;49.414;11.010;2024-02-23T02:52:53;7.30;99.90
54461;DHT22;69977;49.414;11.010;2024-02-23T02:55:19;7.30;99.90
54461;DHT22;69977;49.414;11.010;2024-02-23T02:57:45;7.30;99.90
54461;DHT22;69977;49.414;11.010;2024-02-23T03:00:12;7.30;99.90
54461;DHT22;69977;49.414;11.010;2024-02-23T03:02:38;7.20;99.90
54461;DHT22;69977;49.414;11.010;2024-02-23T03:05:04;7.20;99.90
54461;DHT22;69977;49.414;11.010;2024-02-23T03:07:30;7.20;99.90
54461;DHT22;69977;49.414;11.010;2024-02-23T03:09:56;7.20;99.90
54461;DHT22;69977;49.414;11.010;2024-02-23T03:12:22;7.10;99.90
54461;DHT22;69977;49.414;11.010;2024-02-23T03:14:48;7.10;99.90
54461;DHT22;69977;49.414;11.010;2024-02-23T03:17:15;7.10;99.90
54461;DHT22;69977;49.414;11.010;2024-02-23T03:19:41;7.10;99.90
54461;DHT22;69977;49.414;11.010;2024-02-23T03:22:07;7.10;99.90
54461;DHT22;69977;49.414;11.010;2024-02-23T03:24:33;7.10;99.90
54461;DHT22;69977;49.414;11.010;2024-02-23T03:26:59;7.10;99.90
54461;DHT22;69977;49.414;11.010;2024-02-23T03:29:25;7.10;99.90
54461;DHT22;69977;49.414;11.010;2024-02-23T03:31:55;7.00;99.90
54461;DHT22;69977;49.414;11.010;2024-02-23T03:34:21;7.00;99.90
54461;DHT22;69977;49.414;11.010;2024-02-23T03:36:47;7.00;99.90
54461;DHT22;69977;49.414;11.010;2024-02-23T03:39:13;7.00;99.90
54461;DHT22;69977;49.414;11.010;2024-02-23T03:41:39;7.00;99.90
54461;DHT22;69977;49.414;11.010;2024-02-23T03:44:05;6.90;99.90
54461;DHT22;69977;49.414;11.010;2024-02-23T03:46:31;6.90;99.90
54461;DHT22;69977;49.414;11.010;2024-02-23T03:48:57;6.90;99.90
54461;DHT22;69977;49.414;11.010;2024-02-23T03:51:23;6.90;99.90
54461;DHT22;69977;49.414;11.010;2024-02-23T03:53:50;6.90;99.90
54461;DHT22;69977;49.414;11.010;2024-02-23T03:56:16;7.00;99.90
54461;DHT22;69977;49.414;11.010;2024-02-23T03:58:42;6.90;99.90
54461;DHT22;69977;49.414;11.010;2024-02-23T04:01:08;6.80;99.90
54461;DHT22;69977;49.414;11.010;2024-02-23T04:03:34;6.90;99.90
54461;DHT22;69977;49.414;11.010;2024-02-23T04:06:00;6.90;99.90
54461;DHT22;69977;49.414;11.010;2024-02-23T04:08:26;6.90;99.90
54461;DHT22;69977;49.414;11.010;2024-02-23T04:10:51;6.80;99.90
54461;DHT22;69977;49.414;11.010;2024-02-23T04:13:17;6.80;99.90
54461;DHT22;69977;49.414;11.010;2024-02-23T04:15:44;6.80;99.90
54461;DHT22;69977;49.414;11.010;2024-02-23T04:18:11;6.80;99.90
54461;DHT22;69977;49.414;11.010;2024-02-23T04:20:37;6.80;99.90
54461;DHT22;69977;49.414;11.010;2024-02-23T04:23:03;6.70;99.90
54461;DHT22;69977;49.414;11.010;2024-02-23T04:25:29;6.80;99.90
54461;DHT22;69977;49.414;11.010;2024-02-23T04:27:54;6.70;99.90
54461;DHT22;69977;49.414;11.010;2024-02-23T04:30:20;6.70;99.90
54461;DHT22;69977;49.414;11.010;2024-02-23T04:32:46;6.60;99.90
54461;DHT22;69977;49.414;11.010;2024-02-23T04:35:13;6.60;99.90
54461;DHT22;69977;49.414;11.010;2024-02-23T04:37:39;6.70;99.90
54461;DHT22;69977;49.414;11.010;2024-02-23T04:40:05;6.70;99.90
54461;DHT22;69977;49.414;11.010;2024-02-23T04:42:32;6.70;99.90
54461;DHT22;69977;49.414;11.010;2024-02-23T04:44:58;6.60;99.90
54461;DHT22;69977;49.414;11.010;2024-02-23T04:47:24;6.60;99.90
54461;DHT22;69977;49.414;11.010;2024-02-23T04:49:50;6.60;99.90
54461;DHT22;69977;49.414;11.010;2024-02-23T04:52:15;6.60;99.90
54461;DHT22;69977;49.414;11.010;2024-02-23T04:54:41;6.60;99.90
54461;DHT22;69977;49.414;11.010;2024-02-23T04:57:07;6.60;99.90
54461;DHT22;69977;49.414;11.010;2024-02-23T04:59:33;6.60;99.90
54461;DHT22;69977;49.414;11.010;2024-02-23T05:01:59;6.60;99.90
54461;DHT22;69977;49.414;11.010;2024-02-23T05:04:25;6.50;99.90
54461;DHT22;69977;49.414;11.010;2024-02-23T05:06:52;6.50;99.90
54461;DHT22;69977;49.414;11.010;2024-02-23T05:09:18;6.50;99.90
54461;DHT22;69977;49.414;11.010;2024-02-23T05:11:44;6.50;99.90
54461;DHT22;69977;49.414;11.010;2024-02-23T05:14:11;6.40;99.90
54461;DHT22;69977;49.414;11.010;2024-02-23T05:16:37;6.40;99.90
54461;DHT22;69977;49.414;11.010;2024-02-23T05:19:03;6.40;99.90
54461;DHT22;69977;49.414;11.010;2024-02-23T05:21:29;6.50;99.90
54461;DHT22;69977;49.414;11.010;2024-02-23T05:23:55;6.40;99.90
54461;DHT22;69977;49.414;11.010;2024-02-23T05:26:21;6.40;99.90
54461;DHT22;69977;49.414;11.010;2024-02-23T05:28:47;6.40;99.90
54461;DHT22;69977;49.414;11.010;2024-02-23T05:31:12;6.30;99.90
54461;DHT22;69977;49.414;11.010;2024-02-23T05:33:39;6.30;99.90
54461;DHT22;69977;49.414;11.010;2024-02-23T05:36:05;6.30;99.90
54461;DHT22;69977;49.414;11.010;2024-02-23T05:38:31;6.30;99.90
54461;DHT22;69977;49.414;11.010;2024-02-23T05:40:57;6.30;99.90
54461;DHT22;69977;49.414;11.010;2024-02-23T05:43:23;6.40;99.90
54461;DHT22;69977;49.414;11.010;2024-02-23T05:45:49;6.30;99.90
54461;DHT22;69977;49.414;11.010;2024-02-23T05:48:15;6.30;99.90
54461;DHT22;69977;49.414;11.010;2024-02-23T05:50:41;6.20;99.90
54461;DHT22;69977;49.414;11.010;2024-02-23T05:53:06;6.30;99.90
54461;DHT22;69977;49.414;11.010;2024-02-23T05:55:33;6.30;99.90
54461;DHT22;69977;49.414;11.010;2024-02-23T05:57:59;6.30;99.90
54461;DHT22;69977;49.414;11.010;2024-02-23T06:00:25;6.20;99.90
54461;DHT22;69977;49.414;11.010;2024-02-23T06:02:51;6.20;99.90
54461;DHT22;69977;49.414;11.010;2024-02-23T06:05:16;6.20;99.90
54461;DHT22;69977;49.414;11.010;2024-02-23T06:07:42;6.20;99.90
54461;DHT22;69977;49.414;11.010;2024-02-23T06:10:08;6.10;99.90
54461;DHT22;69977;49.414;11.010;2024-02-23T06:12:34;6.10;99.90
54461;DHT22;69977;49.414;11.010;2024-02-23T06:15:00;6.00;99.90
54461;DHT22;69977;49.414;11.010;2024-02-23T06:17:26;5.90;99.90
54461;DHT22;69977;49.414;11.010;2024-02-23T06:19:52;5.90;99.90
54461;DHT22;69977;49.414;11.010;2024-02-23T06:22:19;5.70;99.90
54461;DHT22;69977;49.414;11.010;2024-02-23T06:24:47;5.70;99.90
54461;DHT22;69977;49.414;11.010;2024-02-23T06:27:13;5.70;99.90
54461;DHT22;69977;49.414;11.010;2024-02-23T06:29:39;5.80;99.90
54461;DHT22;69977;49.414;11.010;2024-02-23T06:32:05;5.80;99.90
54461;DHT22;69977;49.414;11.010;2024-02-23T06:34:31;5.80;99.90
54461;DHT22;69977;49.414;11.010;2024-02-23T06:36:57;5.80;99.90
54461;DHT22;69977;49.414;11.010;2024-02-23T06:39:23;5.80;99.90
54461;DHT22;69977;49.414;11.010;2024-02-23T06:41:49;5.80;99.90
54461;DHT22;69977;49.414;11.010;2024-02-23T06:44:15;5.90;99.90
54461;DHT22;69977;49.414;11.010;2024-02-23T06:46:41;5.80;99.90
54461;DHT22;69977;49.414;11.010;2024-02-23T06:49:07;5.80;99.90
54461;DHT22;69977;49.414;11.010;2024-02-23T06:51:33;5.80;99.90
54461;DHT22;69977;49.414;11.010;2024-02-23T06:53:59;5.70;99.90
54461;DHT22;69977;49.414;11.010;2024-02-23T06:56:25;5.60;99.90
54461;DHT22;69977;49.414;11.010;2024-02-23T06:58:51;5.70;99.90
54461;DHT22;69977;49.414;11.010;2024-02-23T07:01:17;5.70;99.90
54461;DHT22;69977;49.414;11.010;2024-02-23T07:03:46;5.70;99.90
54461;DHT22;69977;49.414;11.010;2024-02-23T07:06:11;5.70;99.90
54461;DHT22;69977;49.414;11.010;2024-02-23T07:08:37;5.70;99.90
54461;DHT22;69977;49.414;11.010;2024-02-23T07:11:03;5.70;99.90
54461;DHT22;69977;49.414;11.010;2024-02-23T07:13:29;5.70;99.90
54461;DHT22;69977;49.414;11.010;2024-02-23T07:15:55;5.80;99.90
54461;DHT22;69977;49.414;11.010;2024-02-23T07:18:22;5.80;99.90
54461;DHT22;69977;49.414;11.010;2024-02-23T07:20:48;5.80;99.90
54461;DHT22;69977;49.414;11.010;2024-02-23T07:23:16;5.80;99.90
54461;DHT22;69977;49.414;11.010;2024-02-23T07:25:42;5.80;99.90
54461;DHT22;69977;49.414;11.010;2024-02-23T07:28:08;5.90;99.90
54461;DHT22;69977;49.414;11.010;2024-02-23T07:30:34;5.90;99.90
54461;DHT22;69977;49.414;11.010;2024-02-23T07:33:00;5.90;99.90
54461;DHT22;69977;49.414;11.010;2024-02-23T07:35:26;6.00;99.90
54461;DHT22;69977;49.414;11.010;2024-02-23T07:37:55;6.10;99.90
54461;DHT22;69977;49.414;11.010;2024-02-23T07:40:20;6.20;99.90
54461;DHT22;69977;49.414;11.010;2024-02-23T07:42:46;6.20;99.90
54461;DHT22;69977;49.414;11.010;2024-02-23T07:45:12;6.20;99.90
54461;DHT22;69977;49.414;11.010;2024-02-23T07:47:38;6.20;99.90
54461;DHT22;69977;49.414;11.010;2024-02-23T07:50:04;6.20;99.90
54461;DHT22;69977;49.414;11.010;2024-02-23T07:52:30;6.20;99.90
54461;DHT22;69977;49.414;11.010;2024-02-23T07:54:56;6.30;99.90
54461;DHT22;69977;49.414;11.010;2024-02-23T07:57:23;6.30;99.90
54461;DHT22;69977;49.414;11.010;2024-02-23T07:59:49;6.30;99.90
54461;DHT22;69977;49.414;11.010;2024-02-23T08:02:15;6.30;99.90
54461;DHT22;69977;49.414;11.010;2024-02-23T08:04:41;6.30;99.90
54461;DHT22;69977;49.414;11.010;2024-02-23T08:07:08;6.30;99.90
54461;DHT22;69977;49.414;11.010;2024-02-23T08:09:34;6.40;99.90
54461;DHT22;69977;49.414;11.010;2024-02-23T08:12:00;6.50;99.90
54461;DHT22;69977;49.414;11.010;2024-02-23T08:14:26;6.50;99.90
54461;DHT22;69977;49.414;11.010;2024-02-23T08:16:51;6.50;99.90
54461;DHT22;69977;49.414;11.010;2024-02-23T08:19:17;6.50;99.90
54461;DHT22;69977;49.414;11.010;2024-02-23T08:21:43;6.60;99.90
54461;DHT22;69977;49.414;11.010;2024-02-23T08:24:09;6.70;99.90
54461;DHT22;69977;49.414;11.010;2024-02-23T08:26:35;6.70;99.90
54461;DHT22;69977;49.414;11.010;2024-02-23T08:29:04;6.80;99.90
54461;DHT22;69977;49.414;11.010;2024-02-23T08:31:30;6.80;99.90
54461;DHT22;69977;49.414;11.010;2024-02-23T08:33:56;6.80;99.90
54461;DHT22;69977;49.414;11.010;2024-02-23T08:36:22;6.80;99.90
54461;DHT22;69977;49.414;11.010;2024-02-23T08:38:48;6.90;99.90
54461;DHT22;69977;49.414;11.010;2024-02-23T08:41:14;6.90;99.90
54461;DHT22;69977;49.414;11.010;2024-02-23T08:43:40;7.00;99.90
54461;DHT22;69977;49.414;11.010;2024-02-23T08:46:06;7.00;99.90
54461;DHT22;69977;49.414;11.010;2024-02-23T08:48:32;7.10;99.90
54461;DHT22;69977;49.414;11.010;2024-02-23T08:50:58;7.10;99.90
54461;DHT22;69977;49.414;11.010;2024-02-23T08:53:26;7.00;99.90
54461;DHT22;69977;49.414;11.010;2024-02-23T08:55:52;7.20;99.90
54461;DHT22;69977;49.414;11.010;2024-02-23T08:58:17;7.20;99.90
54461;DHT22;69977;49.414;11.010;2024-02-23T09:00:43;7.20;99.90
54461;DHT22;69977;49.414;11.010;2024-02-23T09:03:09;7.20;99.90
54461;DHT22;69977;49.414;11.010;2024-02-23T09:05:35;7.10;99.90
54461;DHT22;69977;49.414;11.010;2024-02-23T09:08:01;7.20;99.90
54461;DHT22;69977;49.414;11.010;2024-02-23T09:10:27;7.20;99.90
54461;DHT22;69977;49.414;11.010;2024-02-23T09:12:52;7.30;99.90
54461;DHT22;69977;49.414;11.010;2024-02-23T09:15:18;7.30;99.90
54461;DHT22;69977;49.414;11.010;2024-02-23T09:17:44;7.30;99.90
54461;DHT22;69977;49.414;11.010;2024-02-23T09:20:11;7.30;99.90
54461;DHT22;69977;49.414;11.010;2024-02-23T09:22:37;7.20;99.90
54461;DHT22;69977;49.414;11.010;2024-02-23T09:25:03;7.20;99.90
54461;DHT22;69977;49.414;11.010;2024-02-23T09:27:31;7.30;99.90
54461;DHT22;69977;49.414;11.010;2024-02-23T09:29:56;7.30;99.90
54461;DHT22;69977;49.414;11.010;2024-02-23T09:32:24;7.40;99.90
54461;DHT22;69977;49.414;11.010;2024-02-23T09:34:49;7.30;99.90
54461;DHT22;69977;49.414;11.010;2024-02-23T09:37:15;7.30;99.90
54461;DHT22;69977;49.414;11.010;2024-02-23T09:39:41;7.20;99.90
54461;DHT22;69977;49.414;11.010;2024-02-23T09:42:09;7.30;99.90
54461;DHT22;69977;49.414;11.010;2024-02-23T09:44:37;7.30;99.90
54461;DHT22;69977;49.414;11.010;2024-02-23T09:47:03;7.40;99.90
54461;DHT22;69977;49.414;11.010;2024-02-23T09:49:40;7.30;99.90
54461;DHT22;69977;49.414;11.010;2024-02-23T09:52:10;7.30;99.90
54461;DHT22;69977;49.414;11.010;2024-02-23T09:54:39;7.30;99.90
54461;DHT22;69977;49.414;11.010;2024-02-23T09:57:08;7.30;99.90
54461;DHT22;69977;49.414;11.010;2024-02-23T09:59:37;7.30;99.90
54461;DHT22;69977;49.414;11.010;2024-02-23T10:02:09;7.40;99.90
54461;DHT22;69977;49.414;11.010;2024-02-23T10:04:41;7.50;99.90
54461;DHT22;69977;49.414;11.010;2024-02-23T10:07:09;7.30;99.90
54461;DHT22;69977;49.414;11.010;2024-02-23T10:09:35;7.50;99.90
54461;DHT22;69977;49.414;11.010;2024-02-23T10:12:04;7.50;99.90
54461;DHT22;69977;49.414;11.010;2024-02-23T10:14:30;7.50;99.90
54461;DHT22;69977;49.414;11.010;2024-02-23T10:16:56;7.50;99.90
54461;DHT22;69977;49.414;11.010;2024-02-23T10:19:22;7.40;99.90
54461;DHT22;69977;49.414;11.010;2024-02-23T10:21:54;7.40;99.90
54461;DHT22;69977;49.414;11.010;2024-02-23T10:24:20;7.40;99.90
54461;DHT22;69977;49.414;11.010;2024-02-23T10:26:46;7.50;99.90
54461;DHT22;69977;49.414;11.010;2024-02-23T10:29:12;7.60;99.90
54461;DHT22;69977;49.414;11.010;2024-02-23T10:31:38;7.50;99.90
54461;DHT22;69977;49.414;11.010;2024-02-23T10:34:09;7.40;99.90
54461;DHT22;69977;49.414;11.010;2024-02-23T10:36:42;7.40;99.90
54461;DHT22;69977;49.414;11.010;2024-02-23T10:39:09;7.50;99.90
54461;DHT22;69977;49.414;11.010;2024-02-23T10:41:36;7.50;99.90
54461;DHT22;69977;49.414;11.010;2024-02-23T10:44:03;7.50;99.90
54461;DHT22;69977;49.414;11.010;2024-02-23T10:46:33;7.50;99.90
54461;DHT22;69977;49.414;11.010;2024-02-23T10:48:59;7.60;99.90
54461;DHT22;69977;49.414;11.010;2024-02-23T10:51:27;7.70;99.90
54461;DHT22;69977;49.414;11.010;2024-02-23T10:53:54;7.70;99.90
54461;DHT22;69977;49.414;11.010;2024-02-23T10:56:20;7.60;99.90
54461;DHT22;69977;49.414;11.010;2024-02-23T10:58:48;7.60;99.90
54461;DHT22;69977;49.414;11.010;2024-02-23T11:01:14;7.60;99.90
54461;DHT22;69977;49.414;11.010;2024-02-23T11:03:43;7.60;99.90
54461;DHT22;69977;49.414;11.010;2024-02-23T11:06:12;7.60;99.90
54461;DHT22;69977;49.414;11.010;2024-02-23T11:08:38;7.60;99.90
54461;DHT22;69977;49.414;11.010;2024-02-23T11:11:11;7.70;99.90
54461;DHT22;69977;49.414;11.010;2024-02-23T11:13:38;7.70;99.90
54461;DHT22;69977;49.414;11.010;2024-02-23T11:16:05;7.70;99.90
54461;DHT22;69977;49.414;11.010;2024-02-23T11:18:32;7.80;99.90
54461;DHT22;69977;49.414;11.010;2024-02-23T11:21:04;7.80;99.90
54461;DHT22;69977;49.414;11.010;2024-02-23T11:26:12;7.90;99.90
54461;DHT22;69977;49.414;11.010;2024-02-23T11:28:56;7.90;99.90
54461;DHT22;69977;49.414;11.010;2024-02-23T11:31:24;7.90;99.90
54461;DHT22;69977;49.414;11.010;2024-02-23T11:33:54;8.00;99.90
54461;DHT22;69977;49.414;11.010;2024-02-23T11:36:34;8.00;99.90
54461;DHT22;69977;49.414;11.010;2024-02-23T11:39:01;7.90;99.90
54461;DHT22;69977;49.414;11.010;2024-02-23T11:41:28;8.00;99.90
54461;DHT22;69977;49.414;11.010;2024-02-23T11:43:55;8.00;99.90
54461;DHT22;69977;49.414;11.010;2024-02-23T11:46:21;8.00;99.90
54461;DHT22;69977;49.414;11.010;2024-02-23T11:48:48;7.90;99.90
54461;DHT22;69977;49.414;11.010;2024-02-23T11:51:23;8.00;99.90
54461;DHT22;69977;49.414;11.010;2024-02-23T11:53:50;8.10;99.90
54461;DHT22;69977;49.414;11.010;2024-02-23T11:56:16;8.00;99.90
54461;DHT22;69977;49.414;11.010;2024-02-23T11:58:43;8.00;99.90
54461;DHT22;69977;49.414;11.010;2024-02-23T12:01:09;8.10;99.90
54461;DHT22;69977;49.414;11.010;2024-02-23T12:03:35;8.20;99.90
54461;DHT22;69977;49.414;11.010;2024-02-23T12:06:02;8.20;99.90
54461;DHT22;69977;49.414;11.010;2024-02-23T12:08:30;8.30;99.90
54461;DHT22;69977;49.414;11.010;2024-02-23T12:10:58;8.20;99.90
54461;DHT22;69977;49.414;11.010;2024-02-23T12:13:27;8.20;99.90
54461;DHT22;69977;49.414;11.010;2024-02-23T12:15:53;8.30;99.90
54461;DHT22;69977;49.414;11.010;2024-02-23T12:18:23;8.20;99.90
54461;DHT22;69977;49.414;11.010;2024-02-23T12:20:49;8.20;99.90
54461;DHT22;69977;49.414;11.010;2024-02-23T12:23:15;8.10;99.90
54461;DHT22;69977;49.414;11.010;2024-02-23T12:25:53;8.20;99.90
54461;DHT22;69977;49.414;11.010;2024-02-23T12:28:19;8.10;99.90
54461;DHT22;69977;49.414;11.010;2024-02-23T12:30:45;8.20;99.90
54461;DHT22;69977;49.414;11.010;2024-02-23T12:33:15;8.20;99.90
54461;DHT22;69977;49.414;11.010;2024-02-23T12:35:41;8.10;99.90
54461;DHT22;69977;49.414;11.010;2024-02-23T12:38:07;8.10;99.90
54461;DHT22;69977;49.414;11.010;2024-02-23T12:40:33;8.10;99.90
54461;DHT22;69977;49.414;11.010;2024-02-23T12:42:59;8.10;99.90
54461;DHT22;69977;49.414;11.010;2024-02-23T12:45:24;8.00;99.90
54461;DHT22;69977;49.414;11.010;2024-02-23T12:47:51;7.90;99.90
54461;DHT22;69977;49.414;11.010;2024-02-23T12:50:17;8.00;99.90
54461;DHT22;69977;49.414;11.010;2024-02-23T12:52:43;8.00;99.90
54461;DHT22;69977;49.414;11.010;2024-02-23T12:55:09;8.00;99.90
54461;DHT22;69977;49.414;11.010;2024-02-23T12:57:35;8.00;99.90
54461;DHT22;69977;49.414;11.010;2024-02-23T13:00:01;8.10;99.90
54461;DHT22;69977;49.414;11.010;2024-02-23T13:02:26;8.10;99.90
54461;DHT22;69977;49.414;11.010;2024-02-23T13:04:52;8.10;99.90
54461;DHT22;69977;49.414;11.010;2024-02-23T13:07:18;8.10;99.90
54461;DHT22;69977;49.414;11.010;2024-02-23T13:09:44;8.10;99.90
54461;DHT22;69977;49.414;11.010;2024-02-23T13:12:10;8.10;99.90
54461;DHT22;69977;49.414;11.010;2024-02-23T13:14:36;8.10;99.90
54461;DHT22;69977;49.414;11.010;2024-02-23T13:17:02;8.10;99.90
54461;DHT22;69977;49.414;11.010;2024-02-23T13:19:29;8.10;99.90
54461;DHT22;69977;49.414;11.010;2024-02-23T13:21:55;8.10;99.90
54461;DHT22;69977;49.414;11.010;2024-02-23T13:24:21;8.00;99.90
54461;DHT22;69977;49.414;11.010;2024-02-23T13:26:46;8.00;99.90
54461;DHT22;69977;49.414;11.010;2024-02-23T13:29:12;8.00;99.90
54461;DHT22;69977;49.414;11.010;2024-02-23T13:31:38;8.00;99.90
54461;DHT22;69977;49.414;11.010;2024-02-23T13:34:05;7.90;99.90
54461;DHT22;69977;49.414;11.010;2024-02-23T13:36:31;8.00;99.90
54461;DHT22;69977;49.414;11.010;2024-02-23T13:38:57;8.00;99.90
54461;DHT22;69977;49.414;11.010;2024-02-23T13:41:23;8.00;99.90
54461;DHT22;69977;49.414;11.010;2024-02-23T13:43:48;8.10;99.90
54461;DHT22;69977;49.414;11.010;2024-02-23T13:46:14;8.00;99.90
54461;DHT22;69977;49.414;11.010;2024-02-23T13:48:40;8.10;99.90
54461;DHT22;69977;49.414;11.010;2024-02-23T13:51:06;8.00;99.90
54461;DHT22;69977;49.414;11.010;2024-02-23T13:53:32;8.00;99.90
54461;DHT22;69977;49.414;11.010;2024-02-23T13:55:59;8.00;99.90
54461;DHT22;69977;49.414;11.010;2024-02-23T13:58:26;8.00;99.90
54461;DHT22;69977;49.414;11.010;2024-02-23T14:00:54;8.10;99.90
54461;DHT22;69977;49.414;11.010;2024-02-23T14:03:21;8.00;99.90
54461;DHT22;69977;49.414;11.010;2024-02-23T14:05:48;8.00;99.90
54461;DHT22;69977;49.414;11.010;2024-02-23T14:08:14;8.00;99.90
54461;DHT22;69977;49.414;11.010;2024-02-23T14:10:40;8.10;99.90
54461;DHT22;69977;49.414;11.010;2024-02-23T14:13:08;8.00;99.90
54461;DHT22;69977;49.414;11.010;2024-02-23T14:15:34;8.10;99.90
54461;DHT22;69977;49.414;11.010;2024-02-23T14:18:00;8.00;99.90
54461;DHT22;69977;49.414;11.010;2024-02-23T14:20:26;8.10;99.90
54461;DHT22;69977;49.414;11.010;2024-02-23T14:22:52;8.10;99.90
54461;DHT22;69977;49.414;11.010;2024-02-23T14:25:18;8.10;99.90
54461;DHT22;69977;49.414;11.010;2024-02-23T14:27:44;8.10;99.90
54461;DHT22;69977;49.414;11.010;2024-02-23T14:30:10;8.10;99.90
54461;DHT22;69977;49.414;11.010;2024-02-23T14:32:36;8.10;99.90
54461;DHT22;69977;49.414;11.010;2024-02-23T14:35:02;8.00;99.90
54461;DHT22;69977;49.414;11.010;2024-02-23T14:37:29;8.10;99.90
54461;DHT22;69977;49.414;11.010;2024-02-23T14:39:55;8.00;99.90
54461;DHT22;69977;49.414;11.010;2024-02-23T14:42:21;7.80;99.90
54461;DHT22;69977;49.414;11.010;2024-02-23T14:44:47;7.80;99.90
54461;DHT22;69977;49.414;11.010;2024-02-23T14:47:13;7.90;99.90
54461;DHT22;69977;49.414;11.010;2024-02-23T14:49:39;7.90;99.90
54461;DHT22;69977;49.414;11.010;2024-02-23T14:52:05;7.90;99.90
54461;DHT22;69977;49.414;11.010;2024-02-23T14:54:31;7.90;99.90
54461;DHT22;69977;49.414;11.010;2024-02-23T14:56:58;7.80;99.90
54461;DHT22;69977;49.414;11.010;2024-02-23T14:59:24;7.80;99.90
54461;DHT22;69977;49.414;11.010;2024-02-23T15:01:50;7.80;99.90
54461;DHT22;69977;49.414;11.010;2024-02-23T15:04:16;7.80;99.90
54461;DHT22;69977;49.414;11.010;2024-02-23T15:06:42;7.70;99.90
54461;DHT22;69977;49.414;11.010;2024-02-23T15:09:08;7.70;99.90
54461;DHT22;69977;49.414;11.010;2024-02-23T15:11:34;7.60;99.90
54461;DHT22;69977;49.414;11.010;2024-02-23T15:14:00;7.70;99.90
54461;DHT22;69977;49.414;11.010;2024-02-23T15:16:30;7.70;99.90
54461;DHT22;69977;49.414;11.010;2024-02-23T15:18:58;7.70;99.90
54461;DHT22;69977;49.414;11.010;2024-02-23T15:21:25;7.70;99.90
54461;DHT22;69977;49.414;11.010;2024-02-23T15:23:51;7.60;99.90
54461;DHT22;69977;49.414;11.010;2024-02-23T15:26:17;7.60;99.90
54461;DHT22;69977;49.414;11.010;2024-02-23T15:28:43;7.60;99.90